createdAt,value
2023-04-29T00:00:55.249Z,100906.78
2023-04-29T00:03:23.317Z,100912.28
2023-04-29T00:05:51.507Z,100918.81
2023-04-29T00:08:19.552Z,100916.19
2023-04-29T00:10:48.687Z,100928.06
2023-04-29T00:13:16.555Z,100922.00
2023-04-29T00:15:44.896Z,100920.31
2023-04-29T00:18:14.067Z,100920.44
2023-04-29T00:20:43.369Z,100923.50
2023-04-29T00:23:11.591Z,100919.72
2023-04-29T00:25:39.324Z,100920.88
2023-04-29T00:28:08.568Z,100932.75
2023-04-29T00:30:36.511Z,100924.84
2023-04-29T00:33:04.416Z,100938.88
2023-04-29T00:35:32.338Z,100939.03
2023-04-29T00:38:00.196Z,100936.59
2023-04-29T00:40:29.134Z,100940.38
2023-04-29T00:42:57.145Z,100942.53
2023-04-29T00:45:27.602Z,100949.94
2023-04-29T00:47:55.450Z,100958.50
2023-04-29T00:50:23.629Z,100956.78
2023-04-29T00:52:52.934Z,100963.28
2023-04-29T00:55:21.752Z,100960.78
2023-04-29T00:57:52.216Z,100964.56
2023-04-29T01:00:20.392Z,100971.06
2023-04-29T01:02:51.027Z,100973.66
2023-04-29T01:05:19.412Z,100976.75
2023-04-29T01:07:57.624Z,100965.75
2023-04-29T01:10:29.832Z,100974.13
2023-04-29T01:13:07.845Z,100967.34
2023-04-29T01:15:44.235Z,100975.44
2023-04-29T01:18:19.812Z,100977.47
2023-04-29T01:20:48.826Z,100976.03
2023-04-29T01:23:16.681Z,100987.19
2023-04-29T01:25:46.320Z,100980.69
2023-04-29T01:28:28.161Z,100982.69
2023-04-29T01:31:01.961Z,100983.88
2023-04-29T01:33:41.433Z,100984.91
2023-04-29T01:36:18.152Z,100991.56
2023-04-29T01:38:52.551Z,100997.91
2023-04-29T01:41:32.200Z,100999.94
2023-04-29T01:44:14.744Z,100998.38
2023-04-29T01:46:44.226Z,100998.53
2023-04-29T01:49:12.066Z,100996.78
2023-04-29T01:51:39.981Z,101000.53
2023-04-29T01:54:08.001Z,100996.94
2023-04-29T01:56:37.219Z,101001.56
2023-04-29T01:59:21.984Z,101009.25
2023-04-29T02:02:08.742Z,101005.78
2023-04-29T02:04:40.223Z,101003.91
2023-04-29T02:07:08.294Z,101005.03
2023-04-29T02:09:36.389Z,101015.91
2023-04-29T02:12:11.487Z,101015.03
2023-04-29T02:14:39.506Z,101024.44
2023-04-29T02:17:07.516Z,101024.56
2023-04-29T02:19:35.591Z,101023.88
2023-04-29T02:22:03.488Z,101022.13
2023-04-29T02:24:31.502Z,101019.53
2023-04-29T02:27:00.247Z,101023.28
2023-04-29T02:29:31.122Z,101038.75
2023-04-29T02:31:59.841Z,101032.69
2023-04-29T02:34:27.936Z,101030.94
2023-04-29T02:36:55.722Z,101036.59
2023-04-29T02:39:23.507Z,101033.00
2023-04-29T02:44:44.268Z,101045.28
2023-04-29T02:47:12.943Z,101046.59
2023-04-29T02:49:41.139Z,101052.22
2023-04-29T02:52:09.106Z,101045.84
2023-04-29T02:54:37.972Z,101060.59
2023-04-29T02:57:06.025Z,101062.63
2023-04-29T02:59:33.863Z,101066.53
2023-04-29T03:02:03.735Z,101069.13
2023-04-29T03:04:31.683Z,101071.31
2023-04-29T03:06:59.539Z,101069.69
2023-04-29T03:09:28.344Z,101074.31
2023-04-29T03:11:56.476Z,101070.00
2023-04-29T03:14:24.966Z,101073.59
2023-04-29T03:20:33.841Z,101080.41
2023-04-29T03:23:40.655Z,101084.44
2023-04-29T03:26:11.630Z,101084.72
2023-04-29T03:28:52.916Z,101096.59
2023-04-29T03:31:23.387Z,101091.22
2023-04-29T03:33:53.501Z,101088.63
2023-04-29T03:36:22.456Z,101096.00
2023-04-29T03:39:04.213Z,101092.38
2023-04-29T03:41:32.411Z,101094.41
2023-04-29T03:44:01.098Z,101091.78
2023-04-29T03:46:30.727Z,101095.53
2023-04-29T03:49:02.241Z,101097.41
2023-04-29T03:51:30.824Z,101104.03
2023-04-29T03:54:13.383Z,101107.66
2023-04-29T03:56:41.913Z,101102.47
2023-04-29T03:59:10.055Z,101105.34
2023-04-29T04:01:39.606Z,101107.22
2023-04-29T04:04:08.532Z,101108.34
2023-04-29T04:06:39.802Z,101111.25
2023-04-29T04:09:08.160Z,101110.38
2023-04-29T04:11:37.630Z,101117.72
2023-04-29T04:14:06.573Z,101122.53
2023-04-29T04:16:34.654Z,101124.53
2023-04-29T04:19:04.448Z,101120.78
2023-04-29T04:21:36.897Z,101118.16
2023-04-29T04:24:09.108Z,101132.91
2023-04-29T04:26:41.548Z,101124.53
2023-04-29T04:29:17.217Z,101129.28
2023-04-29T04:31:55.921Z,101132.16
2023-04-29T04:34:24.982Z,101138.53
2023-04-29T04:36:53.947Z,101134.91
2023-04-29T04:39:23.528Z,101139.69
2023-04-29T04:41:53.846Z,101138.66
2023-04-29T04:44:22.166Z,101152.53
2023-04-29T04:47:11.665Z,101148.06
2023-04-29T04:49:53.353Z,101159.03
2023-04-29T04:52:22.690Z,101150.81
2023-04-29T04:55:01.196Z,101158.16
2023-04-29T04:57:32.849Z,101162.66
2023-04-29T05:00:04.063Z,101165.53
2023-04-29T05:02:32.828Z,101163.78
2023-04-29T05:05:00.935Z,101169.28
2023-04-29T05:07:32.029Z,101173.03
2023-04-29T05:10:08.470Z,101176.63
2023-04-29T05:12:43.882Z,101178.50
2023-04-29T05:15:12.691Z,101181.38
2023-04-29T05:17:40.916Z,101187.88
2023-04-29T05:20:10.229Z,101189.75
2023-04-29T05:22:38.136Z,101190.78
2023-04-29T05:25:06.681Z,101192.78
2023-04-29T05:27:36.445Z,101200.16
2023-04-29T05:30:09.794Z,101200.03
2023-04-29T05:32:37.800Z,101201.16
2023-04-29T05:35:08.486Z,101204.78
2023-04-29T05:37:36.780Z,101205.91
2023-04-29T05:40:14.121Z,101208.66
2023-04-29T05:42:42.688Z,101222.38
2023-04-29T05:45:16.992Z,101214.88
2023-04-29T05:47:48.066Z,101214.28
2023-04-29T05:50:16.484Z,101218.91
2023-04-29T05:52:44.559Z,101218.91
2023-04-29T05:55:14.188Z,101228.00
2023-04-29T05:57:42.213Z,101229.91
2023-04-29T06:00:13.375Z,101230.72
2023-04-29T06:03:05.864Z,101232.47
2023-04-29T06:05:55.060Z,101225.53
2023-04-29T06:08:38.742Z,101237.38
2023-04-29T06:11:16.261Z,101245.50
2023-04-29T06:13:44.934Z,101251.84
2023-04-29T06:16:14.651Z,101255.16
2023-04-29T06:18:42.910Z,101261.78
2023-04-29T06:21:10.826Z,101262.66
2023-04-29T06:23:38.710Z,101263.53
2023-04-29T06:26:13.358Z,101268.16
2023-04-29T06:28:41.298Z,101270.91
2023-04-29T06:31:11.599Z,101275.38
2023-04-29T06:33:41.999Z,101273.50
2023-04-29T06:36:10.352Z,101273.63
2023-04-29T06:38:58.556Z,101281.00
2023-04-29T06:41:52.707Z,101285.63
2023-04-29T06:44:34.554Z,101297.47
2023-04-29T06:47:29.550Z,101283.75
2023-04-29T06:50:13.414Z,101291.97
2023-04-29T06:52:41.356Z,101303.13
2023-04-29T06:55:11.407Z,101301.25
2023-04-29T06:57:42.807Z,101308.59
2023-04-29T07:00:11.599Z,101308.59
2023-04-29T07:02:40.175Z,101308.72
2023-04-29T07:05:09.427Z,101317.72
2023-04-29T07:07:38.995Z,101317.72
2023-04-29T07:10:07.620Z,101318.72
2023-04-29T07:12:35.679Z,101319.72
2023-04-29T07:15:03.669Z,101329.69
2023-04-29T07:17:32.016Z,101327.94
2023-04-29T07:20:00.289Z,101334.31
2023-04-29T07:22:28.442Z,101338.91
2023-04-29T07:24:57.831Z,101347.91
2023-04-29T07:27:26.267Z,101344.53
2023-04-29T07:29:54.152Z,101347.28
2023-04-29T07:32:25.792Z,101357.13
2023-04-29T07:35:14.437Z,101361.88
2023-04-29T07:37:44.103Z,101365.47
2023-04-29T07:40:14.109Z,101369.84
2023-04-29T07:42:42.270Z,101362.75
2023-04-29T07:45:11.646Z,101376.34
2023-04-29T07:47:39.630Z,101374.59
2023-04-29T07:50:08.341Z,101378.22
2023-04-29T07:52:36.523Z,101379.19
2023-04-29T07:55:04.782Z,101373.72
2023-04-29T07:57:34.201Z,101377.34
2023-04-29T08:00:04.217Z,101375.59
2023-04-29T08:02:43.054Z,101382.06
2023-04-29T08:05:14.634Z,101384.69
2023-04-29T08:07:48.315Z,101391.19
2023-04-29T08:10:16.763Z,101400.16
2023-04-29T08:12:48.531Z,101397.28
2023-04-29T08:15:16.690Z,101391.19
2023-04-29T08:17:44.450Z,101394.78
2023-04-29T08:20:13.790Z,101401.03
2023-04-29T08:22:42.507Z,101402.03
2023-04-29T08:25:11.258Z,101406.53
2023-04-29T08:27:39.403Z,101403.78
2023-04-29T08:30:10.379Z,101403.50
2023-04-29T08:32:38.564Z,101412.72
2023-04-29T08:35:07.276Z,101402.63
2023-04-29T08:37:35.191Z,101408.09
2023-04-29T08:40:03.592Z,101416.22
2023-04-29T08:42:34.906Z,101420.56
2023-04-29T08:45:17.359Z,101418.59
2023-04-29T08:47:45.795Z,101421.69
2023-04-29T08:50:13.634Z,101428.81
2023-04-29T08:52:41.593Z,101432.44
2023-04-29T08:55:10.230Z,101441.41
2023-04-29T08:57:40.304Z,101446.03
2023-04-29T09:00:11.434Z,101436.91
2023-04-29T09:02:46.590Z,101443.13
2023-04-29T09:05:14.648Z,101440.66
2023-04-29T09:07:43.410Z,101448.91
2023-04-29T09:10:11.889Z,101443.41
2023-04-29T09:12:39.761Z,101456.25
2023-04-29T09:15:08.662Z,101461.75
2023-04-29T09:17:42.580Z,101454.38
2023-04-29T09:20:32.261Z,101461.00
2023-04-29T09:23:02.606Z,101458.38
2023-04-29T09:25:31.454Z,101460.25
2023-04-29T09:27:59.345Z,101463.00
2023-04-29T09:30:27.434Z,101470.34
2023-04-29T09:33:10.499Z,101468.47
2023-04-29T09:35:41.508Z,101468.75
2023-04-29T09:38:11.851Z,101478.75
2023-04-29T09:40:54.270Z,101472.50
2023-04-29T09:43:26.310Z,101475.38
2023-04-29T09:45:54.548Z,101473.50
2023-04-29T09:48:32.014Z,101471.50
2023-04-29T09:51:04.016Z,101474.25
2023-04-29T09:53:32.737Z,101480.09
2023-04-29T09:56:01.914Z,101480.72
2023-04-29T09:58:31.536Z,101487.22
2023-04-29T10:01:01.639Z,101494.47
2023-04-29T10:03:34.454Z,101492.59
2023-04-29T10:06:04.120Z,101499.19
2023-04-29T10:08:32.555Z,101501.94
2023-04-29T10:11:02.054Z,101502.69
2023-04-29T10:13:31.226Z,101503.69
2023-04-29T10:16:07.593Z,101516.13
2023-04-29T10:18:42.226Z,101510.63
2023-04-29T10:21:10.538Z,101507.91
2023-04-29T10:23:38.762Z,101515.00
2023-04-29T10:26:07.377Z,101507.66
2023-04-29T10:28:38.580Z,101514.63
2023-04-29T10:31:08.847Z,101515.50
2023-04-29T10:33:41.024Z,101517.22
2023-04-29T10:36:09.320Z,101518.25
